createdAt,value
2023-03-19T00:01:50.879Z,22.00
2023-03-19T00:06:57.269Z,22.10
2023-03-19T00:12:03.702Z,22.20
2023-03-19T00:17:09.828Z,22.20
2023-03-19T00:22:16.329Z,22.20
2023-03-19T00:27:22.889Z,22.30
2023-03-19T00:32:29.945Z,22.20
2023-03-19T00:37:36.772Z,22.30
2023-03-19T00:42:43.327Z,22.30
2023-03-19T00:47:48.953Z,22.30
2023-03-19T00:52:55.378Z,22.30
2023-03-19T00:58:02.856Z,22.40
2023-03-19T01:03:09.542Z,22.50
2023-03-19T01:08:16.586Z,22.50
2023-03-19T01:13:22.390Z,22.60
2023-03-19T01:18:29.146Z,22.70
2023-03-19T01:23:36.112Z,22.90
2023-03-19T01:28:42.741Z,23.30
2023-03-19T01:33:50.624Z,23.70
2023-03-19T01:39:10.478Z,24.00
2023-03-19T01:44:38.645Z,24.20
2023-03-19T01:50:03.893Z,24.80
2023-03-19T01:55:14.342Z,24.70
2023-03-19T02:00:28.087Z,24.80
2023-03-19T02:05:36.043Z,24.90
2023-03-19T02:10:46.658Z,24.90
2023-03-19T02:15:54.069Z,24.90
2023-03-19T02:21:19.252Z,25.00
2023-03-19T02:26:28.908Z,25.10
2023-03-19T02:31:40.722Z,25.00
2023-03-19T02:36:51.002Z,24.70
2023-03-19T02:41:59.460Z,24.50
2023-03-19T02:47:08.111Z,24.50
2023-03-19T02:52:14.947Z,24.50
2023-03-19T02:57:21.921Z,24.50
2023-03-19T03:02:33.553Z,24.40
2023-03-19T03:07:39.711Z,24.30
2023-03-19T03:12:46.094Z,24.30
2023-03-19T03:17:52.613Z,24.50
2023-03-19T03:23:03.236Z,24.70
2023-03-19T03:28:10.407Z,24.90
2023-03-19T03:33:20.182Z,25.20
2023-03-19T03:38:26.903Z,25.40
2023-03-19T03:43:42.693Z,25.70
2023-03-19T03:48:55.879Z,25.90
2023-03-19T03:54:04.762Z,26.20
2023-03-19T03:59:12.194Z,26.20
2023-03-19T04:04:56.012Z,26.00
2023-03-19T04:10:15.355Z,25.70
2023-03-19T04:21:34.709Z,25.60
2023-03-19T04:26:41.740Z,26.00
2023-03-19T04:31:48.568Z,26.30
2023-03-19T04:36:55.426Z,26.60
2023-03-19T04:42:09.126Z,26.60
2023-03-19T04:47:22.470Z,26.50
2023-03-19T04:52:36.435Z,27.10
2023-03-19T04:57:44.879Z,27.50
2023-03-19T05:02:52.885Z,27.60
2023-03-19T05:13:31.127Z,28.30
2023-03-19T05:18:38.373Z,28.20
2023-03-19T05:23:59.038Z,28.20
2023-03-19T05:29:18.018Z,28.20
2023-03-19T05:35:36.237Z,29.40
2023-03-19T05:40:49.745Z,29.00
2023-03-19T05:46:07.682Z,28.80
2023-03-19T05:51:14.069Z,29.60
2023-03-19T05:56:26.049Z,31.00
2023-03-19T06:02:02.459Z,29.60
2023-03-19T06:07:09.705Z,29.30
2023-03-19T06:12:16.209Z,28.80
2023-03-19T06:17:22.620Z,28.60
2023-03-19T06:22:29.211Z,28.60
2023-03-19T06:27:36.081Z,28.60
2023-03-19T06:32:56.573Z,28.20
2023-03-19T06:38:02.990Z,28.20
2023-03-19T06:43:09.033Z,28.90
2023-03-19T06:48:15.324Z,29.30
2023-03-19T06:53:21.282Z,29.00
2023-03-19T06:58:28.258Z,28.30
2023-03-19T07:03:35.381Z,27.80
2023-03-19T07:08:42.468Z,28.90
2023-03-19T07:13:48.931Z,29.30
2023-03-19T07:18:55.272Z,28.90
2023-03-19T07:24:05.983Z,28.40
2023-03-19T07:29:12.635Z,28.20
2023-03-19T07:34:19.522Z,28.10
2023-03-19T07:39:25.702Z,27.50
2023-03-19T07:44:33.785Z,27.40
2023-03-19T07:49:40.717Z,27.30
2023-03-19T07:54:46.669Z,27.20
2023-03-19T07:59:53.426Z,27.00
2023-03-19T08:05:00.382Z,26.80
2023-03-19T08:10:08.488Z,26.70
2023-03-19T08:15:15.797Z,26.60
2023-03-19T08:20:25.448Z,26.80
2023-03-19T08:25:33.746Z,26.80
2023-03-19T08:30:57.775Z,26.60
2023-03-19T08:36:13.191Z,26.50
2023-03-19T08:41:38.503Z,26.50
2023-03-19T08:47:16.802Z,26.60
2023-03-19T08:52:24.010Z,26.90
2023-03-19T08:57:30.742Z,27.30
2023-03-19T09:02:46.601Z,27.30
2023-03-19T09:08:04.431Z,26.90
2023-03-19T09:13:11.017Z,26.70
2023-03-19T09:18:47.792Z,26.70
2023-03-19T09:23:54.095Z,26.60
2023-03-19T09:29:12.316Z,26.50
2023-03-19T09:34:18.505Z,26.30
2023-03-19T09:39:24.842Z,26.10
2023-03-19T09:45:05.650Z,26.10
2023-03-19T09:50:20.916Z,26.10
2023-03-19T09:55:30.163Z,26.00
2023-03-19T10:00:43.120Z,26.00
2023-03-19T10:06:06.362Z,26.00
2023-03-19T10:11:42.939Z,25.70
2023-03-19T10:16:54.374Z,25.70
2023-03-19T10:22:10.324Z,25.60
2023-03-19T10:27:23.114Z,25.50
2023-03-19T10:33:00.927Z,25.50
2023-03-19T10:38:26.252Z,25.30
2023-03-19T10:43:42.455Z,25.10
2023-03-19T10:48:53.303Z,25.10
2023-03-19T11:07:16.071Z,25.10
2023-03-19T11:12:33.674Z,25.10
2023-03-19T11:17:58.971Z,25.00
2023-03-19T11:23:13.743Z,24.90
2023-03-19T11:28:35.400Z,25.00
2023-03-19T11:33:48.242Z,24.90
2023-03-19T11:39:28.637Z,24.70
2023-03-19T11:45:01.745Z,24.70
2023-03-19T11:50:38.268Z,24.80
2023-03-19T11:56:10.211Z,24.70
2023-03-19T12:01:58.256Z,24.70
2023-03-19T12:07:40.880Z,24.60
2023-03-19T12:13:02.435Z,24.70
2023-03-19T12:18:34.215Z,24.60
2023-03-19T12:23:46.276Z,24.60
2023-03-19T12:28:55.967Z,24.60
2023-03-19T12:34:34.037Z,24.60
2023-03-19T12:40:17.369Z,24.50
2023-03-19T12:45:36.043Z,24.40
2023-03-19T12:50:52.672Z,24.40
2023-03-19T12:56:06.109Z,24.50
2023-03-19T13:01:42.572Z,24.60
2023-03-19T13:07:27.935Z,24.50
2023-03-19T13:13:31.024Z,24.50
2023-03-19T13:19:00.544Z,24.50
2023-03-19T13:24:39.123Z,24.30
2023-03-19T13:30:22.024Z,24.40
2023-03-19T13:35:38.497Z,24.40
2023-03-19T13:40:51.318Z,24.30
2023-03-19T13:46:23.501Z,24.40
2023-03-19T13:51:34.693Z,24.30
2023-03-19T13:57:05.214Z,24.50
2023-03-19T14:02:36.035Z,24.30
2023-03-19T14:07:49.811Z,24.50
2023-03-19T14:13:19.045Z,24.30
2023-03-19T14:18:26.472Z,24.30
2023-03-19T14:23:42.829Z,24.20
2023-03-19T14:29:13.421Z,24.30
2023-03-19T14:34:37.151Z,24.30
2023-03-19T14:39:51.631Z,24.30
2023-03-19T14:45:21.872Z,24.20
2023-03-19T14:51:03.037Z,24.10
2023-03-19T14:56:39.569Z,24.00
2023-03-19T15:02:03.240Z,24.00
2023-03-19T15:07:25.969Z,24.00
2023-03-19T15:13:23.118Z,24.00
2023-03-19T15:18:30.410Z,24.00
2023-03-19T15:23:37.504Z,24.30
2023-03-19T15:28:56.224Z,24.20
2023-03-19T15:34:03.821Z,24.20
2023-03-19T15:39:14.291Z,24.10
2023-03-19T15:44:43.952Z,24.00
2023-03-19T15:50:07.341Z,24.00
2023-03-19T15:55:20.265Z,23.90
2023-03-19T16:00:47.755Z,23.80
2023-03-19T16:06:29.011Z,24.00
2023-03-19T16:11:41.170Z,23.90
2023-03-19T16:16:53.315Z,24.00
2023-03-19T16:22:02.678Z,24.10
2023-03-19T16:27:19.088Z,24.10
2023-03-19T16:32:33.330Z,24.10
2023-03-19T16:38:08.567Z,24.00
2023-03-19T16:43:23.917Z,23.90
2023-03-19T16:48:30.682Z,23.90
2023-03-19T16:53:39.499Z,23.90
2023-03-19T16:58:47.359Z,23.90
2023-03-19T17:03:54.772Z,23.90
2023-03-19T17:09:04.528Z,23.90
2023-03-19T17:19:41.753Z,23.90
2023-03-19T17:24:50.097Z,23.80
2023-03-19T17:29:56.069Z,23.90
2023-03-19T17:35:02.682Z,23.90
2023-03-19T17:40:25.941Z,23.80
2023-03-19T17:45:32.338Z,23.60
2023-03-19T17:50:39.480Z,23.60
2023-03-19T17:55:46.333Z,23.60
2023-03-19T18:00:54.223Z,23.80
2023-03-19T18:06:00.009Z,23.70
2023-03-19T18:11:06.228Z,23.70
2023-03-19T18:16:29.431Z,23.70
2023-03-19T18:21:35.915Z,23.70
2023-03-19T18:26:42.598Z,23.70
2023-03-19T18:37:29.070Z,23.40
2023-03-19T18:42:34.716Z,23.60
2023-03-19T18:47:45.569Z,23.50
2023-03-19T18:52:54.520Z,23.50
2023-03-19T18:58:04.271Z,23.50
2023-03-19T19:03:13.802Z,23.60
2023-03-19T19:08:22.636Z,23.50
2023-03-19T19:13:33.902Z,23.50
2023-03-19T19:18:43.154Z,23.30
2023-03-19T19:23:49.878Z,23.30
2023-03-19T19:28:59.080Z,23.30
2023-03-19T19:34:05.395Z,23.20
2023-03-19T19:39:12.314Z,23.30
2023-03-19T19:44:23.893Z,23.30
2023-03-19T19:49:30.264Z,23.30
2023-03-19T19:54:36.482Z,23.30
2023-03-19T19:59:44.252Z,23.30
2023-03-19T20:04:50.318Z,23.30
2023-03-19T20:09:55.940Z,23.30
2023-03-19T20:15:03.034Z,23.30
2023-03-19T20:20:23.052Z,23.20
2023-03-19T20:25:34.116Z,23.20
2023-03-19T20:30:43.432Z,23.20
2023-03-19T20:35:50.613Z,23.20
2023-03-19T20:41:03.579Z,23.30
2023-03-19T20:46:12.186Z,23.40
2023-03-19T20:51:24.869Z,23.20
2023-03-19T20:56:32.035Z,23.10
2023-03-19T21:01:38.508Z,23.10
2023-03-19T21:06:53.082Z,23.10
2023-03-19T21:12:01.612Z,23.10
2023-03-19T21:17:08.479Z,23.10
2023-03-19T21:22:23.767Z,23.10
2023-03-19T21:27:31.756Z,23.10
2023-03-19T21:32:39.314Z,23.10
2023-03-19T21:37:46.075Z,23.10
2023-03-19T21:42:57.511Z,23.20
2023-03-19T21:48:30.136Z,23.10
2023-03-19T21:53:37.259Z,23.10
2023-03-19T21:58:44.057Z,23.00
2023-03-19T22:03:51.110Z,23.00
2023-03-19T22:08:57.676Z,23.00
2023-03-19T22:14:31.782Z,23.10
2023-03-19T22:19:38.742Z,23.00
2023-03-19T22:24:45.862Z,23.00
2023-03-19T22:29:52.132Z,23.00
2023-03-19T22:34:59.292Z,23.00
2023-03-19T22:40:05.401Z,22.90
2023-03-19T22:45:27.121Z,22.90
2023-03-19T22:50:34.532Z,22.90
2023-03-19T22:55:40.704Z,22.90
2023-03-19T23:00:48.208Z,22.90
2023-03-19T23:06:12.324Z,22.90
2023-03-19T23:11:21.501Z,23.00
2023-03-19T23:16:29.809Z,23.00
2023-03-19T23:21:36.379Z,23.00
2023-03-19T23:26:47.738Z,23.00
2023-03-19T23:31:53.476Z,23.10
2023-03-19T23:37:01.111Z,23.10
2023-03-19T23:42:07.546Z,23.10
2023-03-19T23:47:13.605Z,23.10
2023-03-19T23:52:19.280Z,23.20
2023-03-19T23:57:28.100Z,23.20
